NVSS

Details ICAO NVSS (SON)
Name Santo Pekoa Intl
Region Vanuatu
Timezone Pacific/Efate (UTC+11.0)
Plans Departing 18
Arriving 24
Stats Elevation 184 ft / 56 m (AMSL)
Location -15.504600° 167.220000°
Runways 1
Magnetic Variation 10.963° E
Sunrise 2019-05-24 19:09:54 UTC / 2019-05-25 06:09:54 Local
Sunset 2019-05-25 06:28:56 UTC / 2019-05-25 17:28:56 Local
Advertisement - Login to hide

Runways

ID Width Length Bearing (true/mag) Surface Threshold Overrun Markings Lighting
12 98 ft / 30 m 6,569 ft / 2,002 m 129.30° / 118.34° ASPHALT 0 ft / 0 m 203 ft / 62 m APP EDGE THRESHOLD
30 98 ft / 30 m 6,569 ft / 2,002 m 309.30° / 298.34° ASPHALT 0 ft / 0 m 194 ft / 59 m APP EDGE THRESHOLD

Map

Weather


0- 5 10 15 20 25 30 35+ Temperature / °C

Clouds and Precipitation
Forecast for 2019-05-24 18:00 UTC. Updated 7 minutes ago

Ground ~20,000 ft ~40,000 ft Winds

METAR

NVSS 241500Z 28002KT 9999 SCT025 24/23 Q1012

TAF

TAF NVSS 240430Z 2406/2506 15005KT 9999 SCT022 OVC120 BECMG 2406/2409 VRB02KT

Frequencies

Unicom 118.10 MHz CTAF
Warning: Do not use this data for real-world aviation or navigation. No guarantee of current accuracy is given.